sensor_id;sensor_type;location;lat;lon;timestamp;P1;durP1;ratioP1;P2;durP2;ratioP2
15899;SDS011;8048;50.644;6.184;2022-11-28T00:01:05;4.63;;;4.17;;
15899;SDS011;8048;50.644;6.184;2022-11-28T00:03:32;4.57;;;4.17;;
15899;SDS011;8048;50.644;6.184;2022-11-28T00:06:01;4.20;;;3.90;;
15899;SDS011;8048;50.644;6.184;2022-11-28T00:08:31;4.67;;;4.27;;
15899;SDS011;8048;50.644;6.184;2022-11-28T00:10:57;4.03;;;3.70;;
15899;SDS011;8048;50.644;6.184;2022-11-28T00:13:26;4.67;;;3.83;;
15899;SDS011;8048;50.644;6.184;2022-11-28T00:15:55;4.07;;;3.77;;
15899;SDS011;8048;50.644;6.184;2022-11-28T00:18:21;4.97;;;4.20;;
15899;SDS011;8048;50.644;6.184;2022-11-28T00:20:47;6.73;;;5.40;;
15899;SDS011;8048;50.644;6.184;2022-11-28T00:23:13;4.00;;;3.60;;
15899;SDS011;8048;50.644;6.184;2022-11-28T00:25:38;5.93;;;4.63;;
15899;SDS011;8048;50.644;6.184;2022-11-28T00:28:03;4.20;;;3.60;;
15899;SDS011;8048;50.644;6.184;2022-11-28T00:30:29;5.57;;;5.10;;
15899;SDS011;8048;50.644;6.184;2022-11-28T00:32:54;5.63;;;4.63;;
15899;SDS011;8048;50.644;6.184;2022-11-28T00:35:20;5.20;;;4.77;;
15899;SDS011;8048;50.644;6.184;2022-11-28T00:37:46;4.30;;;3.90;;
15899;SDS011;8048;50.644;6.184;2022-11-28T00:40:11;6.20;;;4.33;;
15899;SDS011;8048;50.644;6.184;2022-11-28T00:42:37;4.37;;;4.07;;
15899;SDS011;8048;50.644;6.184;2022-11-28T00:45:02;4.57;;;4.13;;
15899;SDS011;8048;50.644;6.184;2022-11-28T00:47:28;4.70;;;4.30;;
15899;SDS011;8048;50.644;6.184;2022-11-28T00:49:53;5.70;;;4.70;;
15899;SDS011;8048;50.644;6.184;2022-11-28T00:52:19;5.10;;;4.63;;
15899;SDS011;8048;50.644;6.184;2022-11-28T00:54:44;4.13;;;3.50;;
15899;SDS011;8048;50.644;6.184;2022-11-28T00:57:10;6.63;;;4.63;;
15899;SDS011;8048;50.644;6.184;2022-11-28T00:59:35;7.13;;;4.93;;
15899;SDS011;8048;50.644;6.184;2022-11-28T01:02:01;4.40;;;4.07;;
15899;SDS011;8048;50.644;6.184;2022-11-28T01:04:26;4.80;;;4.37;;
15899;SDS011;8048;50.644;6.184;2022-11-28T01:06:52;5.23;;;4.17;;
15899;SDS011;8048;50.644;6.184;2022-11-28T01:09:20;4.83;;;4.10;;
15899;SDS011;8048;50.644;6.184;2022-11-28T01:11:48;4.80;;;4.40;;
15899;SDS011;8048;50.644;6.184;2022-11-28T01:14:15;4.63;;;4.30;;
15899;SDS011;8048;50.644;6.184;2022-11-28T01:16:43;5.70;;;4.00;;
15899;SDS011;8048;50.644;6.184;2022-11-28T01:19:08;4.50;;;4.10;;
15899;SDS011;8048;50.644;6.184;2022-11-28T01:21:34;7.93;;;4.20;;
15899;SDS011;8048;50.644;6.184;2022-11-28T01:24:01;4.20;;;3.80;;
15899;SDS011;8048;50.644;6.184;2022-11-28T01:26:27;4.17;;;3.57;;
15899;SDS011;8048;50.644;6.184;2022-11-28T01:28:54;7.70;;;4.07;;
15899;SDS011;8048;50.644;6.184;2022-11-28T01:31:21;4.50;;;4.10;;
15899;SDS011;8048;50.644;6.184;2022-11-28T01:33:48;3.90;;;3.30;;
15899;SDS011;8048;50.644;6.184;2022-11-28T01:36:15;3.73;;;3.40;;
15899;SDS011;8048;50.644;6.184;2022-11-28T01:38:41;3.80;;;3.50;;
15899;SDS011;8048;50.644;6.184;2022-11-28T01:41:07;4.70;;;4.00;;
15899;SDS011;8048;50.644;6.184;2022-11-28T01:43:33;3.13;;;2.83;;
15899;SDS011;8048;50.644;6.184;2022-11-28T01:46:00;3.10;;;2.63;;
15899;SDS011;8048;50.644;6.184;2022-11-28T01:48:36;3.30;;;3.07;;
15899;SDS011;8048;50.644;6.184;2022-11-28T01:51:06;3.13;;;2.93;;
15899;SDS011;8048;50.644;6.184;2022-11-28T01:53:35;3.53;;;3.23;;
15899;SDS011;8048;50.644;6.184;2022-11-28T01:56:05;3.47;;;3.20;;
15899;SDS011;8048;50.644;6.184;2022-11-28T01:58:37;4.33;;;4.03;;
15899;SDS011;8048;50.644;6.184;2022-11-28T02:01:07;3.13;;;2.63;;
15899;SDS011;8048;50.644;6.184;2022-11-28T02:03:37;3.00;;;2.77;;
15899;SDS011;8048;50.644;6.184;2022-11-28T02:06:08;2.63;;;2.43;;
15899;SDS011;8048;50.644;6.184;2022-11-28T02:08:35;3.00;;;2.80;;
15899;SDS011;8048;50.644;6.184;2022-11-28T02:17:02;3.33;;;2.90;;
15899;SDS011;8048;50.644;6.184;2022-11-28T02:22:47;3.30;;;3.10;;
15899;SDS011;8048;50.644;6.184;2022-11-28T02:28:10;3.33;;;3.03;;
15899;SDS011;8048;50.644;6.184;2022-11-28T02:31:12;2.87;;;2.70;;
15899;SDS011;8048;50.644;6.184;2022-11-28T02:34:04;3.43;;;3.20;;
15899;SDS011;8048;50.644;6.184;2022-11-28T02:39:30;3.20;;;3.00;;
15899;SDS011;8048;50.644;6.184;2022-11-28T02:42:10;3.63;;;3.40;;
15899;SDS011;8048;50.644;6.184;2022-11-28T02:44:46;2.37;;;2.27;;
15899;SDS011;8048;50.644;6.184;2022-11-28T02:47:29;3.00;;;2.80;;
15899;SDS011;8048;50.644;6.184;2022-11-28T02:52:46;3.20;;;3.00;;
15899;SDS011;8048;50.644;6.184;2022-11-28T02:55:15;3.10;;;2.90;;
15899;SDS011;8048;50.644;6.184;2022-11-28T02:57:42;3.83;;;3.37;;
15899;SDS011;8048;50.644;6.184;2022-11-28T03:00:25;4.00;;;2.90;;
15899;SDS011;8048;50.644;6.184;2022-11-28T03:03:07;2.43;;;2.33;;
15899;SDS011;8048;50.644;6.184;2022-11-28T03:16:26;2.60;;;2.50;;
15899;SDS011;8048;50.644;6.184;2022-11-28T03:19:16;2.60;;;2.50;;
15899;SDS011;8048;50.644;6.184;2022-11-28T03:22:03;3.17;;;2.97;;
15899;SDS011;8048;50.644;6.184;2022-11-28T03:32:51;3.20;;;2.90;;
15899;SDS011;8048;50.644;6.184;2022-11-28T03:35:19;2.33;;;2.20;;
15899;SDS011;8048;50.644;6.184;2022-11-28T03:37:54;3.17;;;2.97;;
15899;SDS011;8048;50.644;6.184;2022-11-28T03:40:25;4.40;;;3.50;;
15899;SDS011;8048;50.644;6.184;2022-11-28T03:42:57;3.20;;;3.00;;
15899;SDS011;8048;50.644;6.184;2022-11-28T03:45:28;3.40;;;3.17;;
15899;SDS011;8048;50.644;6.184;2022-11-28T03:48:04;3.40;;;3.10;;
15899;SDS011;8048;50.644;6.184;2022-11-28T03:50:44;3.30;;;3.03;;
15899;SDS011;8048;50.644;6.184;2022-11-28T03:53:19;3.20;;;3.00;;
15899;SDS011;8048;50.644;6.184;2022-11-28T03:55:53;3.13;;;2.93;;
15899;SDS011;8048;50.644;6.184;2022-11-28T03:58:34;2.83;;;2.63;;
15899;SDS011;8048;50.644;6.184;2022-11-28T04:01:17;2.73;;;2.60;;
15899;SDS011;8048;50.644;6.184;2022-11-28T04:03:50;3.30;;;3.00;;
15899;SDS011;8048;50.644;6.184;2022-11-28T04:06:57;3.13;;;2.80;;
15899;SDS011;8048;50.644;6.184;2022-11-28T04:12:22;3.20;;;2.93;;
15899;SDS011;8048;50.644;6.184;2022-11-28T04:15:13;4.33;;;3.73;;
15899;SDS011;8048;50.644;6.184;2022-11-28T04:20:59;3.30;;;3.00;;
15899;SDS011;8048;50.644;6.184;2022-11-28T04:23:34;3.43;;;3.13;;
15899;SDS011;8048;50.644;6.184;2022-11-28T04:26:02;5.80;;;3.60;;
15899;SDS011;8048;50.644;6.184;2022-11-28T04:28:33;3.50;;;3.30;;
15899;SDS011;8048;50.644;6.184;2022-11-28T04:31:01;4.00;;;3.60;;
15899;SDS011;8048;50.644;6.184;2022-11-28T04:33:30;5.30;;;4.80;;
15899;SDS011;8048;50.644;6.184;2022-11-28T04:35:59;4.60;;;4.20;;
15899;SDS011;8048;50.644;6.184;2022-11-28T04:38:27;4.50;;;4.10;;
15899;SDS011;8048;50.644;6.184;2022-11-28T04:43:25;6.80;;;4.60;;
15899;SDS011;8048;50.644;6.184;2022-11-28T04:45:57;4.90;;;4.50;;
15899;SDS011;8048;50.644;6.184;2022-11-28T04:48:37;5.40;;;4.90;;
15899;SDS011;8048;50.644;6.184;2022-11-28T04:51:14;7.33;;;5.70;;
15899;SDS011;8048;50.644;6.184;2022-11-28T04:54:46;5.07;;;4.50;;
15899;SDS011;8048;50.644;6.184;2022-11-28T04:56:49;6.40;;;4.80;;
15899;SDS011;8048;50.644;6.184;2022-11-28T04:59:19;4.43;;;4.13;;
15899;SDS011;8048;50.644;6.184;2022-11-28T05:01:48;6.17;;;4.93;;
15899;SDS011;8048;50.644;6.184;2022-11-28T05:04:14;6.27;;;5.63;;
15899;SDS011;8048;50.644;6.184;2022-11-28T05:06:41;5.73;;;5.20;;
15899;SDS011;8048;50.644;6.184;2022-11-28T05:09:08;6.90;;;5.60;;
15899;SDS011;8048;50.644;6.184;2022-11-28T05:11:35;5.97;;;5.47;;
15899;SDS011;8048;50.644;6.184;2022-11-28T05:14:01;5.37;;;4.90;;
15899;SDS011;8048;50.644;6.184;2022-11-28T05:16:26;5.47;;;4.97;;
15899;SDS011;8048;50.644;6.184;2022-11-28T05:18:52;5.20;;;4.80;;
15899;SDS011;8048;50.644;6.184;2022-11-28T05:21:17;4.50;;;4.10;;
15899;SDS011;8048;50.644;6.184;2022-11-28T05:23:44;6.47;;;5.87;;
15899;SDS011;8048;50.644;6.184;2022-11-28T05:26:14;4.10;;;3.70;;
15899;SDS011;8048;50.644;6.184;2022-11-28T05:28:42;4.47;;;3.90;;
15899;SDS011;8048;50.644;6.184;2022-11-28T05:31:12;4.07;;;3.67;;
15899;SDS011;8048;50.644;6.184;2022-11-28T05:33:38;5.80;;;4.60;;
15899;SDS011;8048;50.644;6.184;2022-11-28T05:36:05;4.07;;;3.77;;
15899;SDS011;8048;50.644;6.184;2022-11-28T05:38:32;6.63;;;4.30;;
15899;SDS011;8048;50.644;6.184;2022-11-28T05:40:59;6.30;;;4.30;;
15899;SDS011;8048;50.644;6.184;2022-11-28T05:43:25;7.90;;;4.67;;
15899;SDS011;8048;50.644;6.184;2022-11-28T05:45:51;4.37;;;3.70;;
15899;SDS011;8048;50.644;6.184;2022-11-28T05:48:16;4.37;;;4.03;;
15899;SDS011;8048;50.644;6.184;2022-11-28T05:50:42;6.43;;;5.00;;
15899;SDS011;8048;50.644;6.184;2022-11-28T05:53:08;4.93;;;4.00;;
15899;SDS011;8048;50.644;6.184;2022-11-28T05:55:34;6.60;;;4.17;;
15899;SDS011;8048;50.644;6.184;2022-11-28T05:58:02;4.70;;;4.30;;
15899;SDS011;8048;50.644;6.184;2022-11-28T06:00:27;4.20;;;3.90;;
15899;SDS011;8048;50.644;6.184;2022-11-28T06:02:53;4.80;;;4.40;;
15899;SDS011;8048;50.644;6.184;2022-11-28T06:05:18;5.50;;;5.07;;
15899;SDS011;8048;50.644;6.184;2022-11-28T06:07:44;4.87;;;4.23;;
15899;SDS011;8048;50.644;6.184;2022-11-28T06:10:09;4.97;;;4.57;;
15899;SDS011;8048;50.644;6.184;2022-11-28T06:12:35;5.97;;;5.47;;
15899;SDS011;8048;50.644;6.184;2022-11-28T06:15:01;5.27;;;4.77;;
15899;SDS011;8048;50.644;6.184;2022-11-28T06:17:26;6.60;;;6.00;;
15899;SDS011;8048;50.644;6.184;2022-11-28T06:19:52;6.17;;;5.63;;
15899;SDS011;8048;50.644;6.184;2022-11-28T06:22:17;7.03;;;5.80;;
15899;SDS011;8048;50.644;6.184;2022-11-28T06:24:43;6.70;;;6.10;;
15899;SDS011;8048;50.644;6.184;2022-11-28T06:27:08;9.50;;;6.00;;
15899;SDS011;8048;50.644;6.184;2022-11-28T06:29:34;4.50;;;3.97;;
15899;SDS011;8048;50.644;6.184;2022-11-28T06:31:59;5.83;;;5.27;;
15899;SDS011;8048;50.644;6.184;2022-11-28T06:34:25;7.07;;;6.40;;
15899;SDS011;8048;50.644;6.184;2022-11-28T06:36:51;5.13;;;4.73;;
15899;SDS011;8048;50.644;6.184;2022-11-28T06:39:16;6.37;;;5.73;;
15899;SDS011;8048;50.644;6.184;2022-11-28T06:41:42;6.13;;;5.53;;
15899;SDS011;8048;50.644;6.184;2022-11-28T06:44:12;7.07;;;5.37;;
15899;SDS011;8048;50.644;6.184;2022-11-28T06:46:38;6.13;;;5.50;;
15899;SDS011;8048;50.644;6.184;2022-11-28T06:49:04;8.53;;;5.87;;
15899;SDS011;8048;50.644;6.184;2022-11-28T06:51:29;5.80;;;5.30;;
15899;SDS011;8048;50.644;6.184;2022-11-28T06:53:55;8.80;;;5.77;;
15899;SDS011;8048;50.644;6.184;2022-11-28T06:56:20;5.93;;;5.33;;
15899;SDS011;8048;50.644;6.184;2022-11-28T06:58:46;6.63;;;5.50;;
15899;SDS011;8048;50.644;6.184;2022-11-28T07:01:18;5.73;;;5.23;;
15899;SDS011;8048;50.644;6.184;2022-11-28T07:03:45;7.30;;;6.47;;
15899;SDS011;8048;50.644;6.184;2022-11-28T07:06:12;5.80;;;5.30;;
15899;SDS011;8048;50.644;6.184;2022-11-28T07:08:39;6.77;;;4.73;;
15899;SDS011;8048;50.644;6.184;2022-11-28T07:13:38;5.93;;;5.30;;
15899;SDS011;8048;50.644;6.184;2022-11-28T07:16:05;11.33;;;4.70;;
15899;SDS011;8048;50.644;6.184;2022-11-28T07:18:31;5.77;;;4.63;;
15899;SDS011;8048;50.644;6.184;2022-11-28T07:20:57;6.10;;;5.50;;
15899;SDS011;8048;50.644;6.184;2022-11-28T07:23:23;5.80;;;5.20;;
15899;SDS011;8048;50.644;6.184;2022-11-28T07:25:49;6.07;;;5.27;;
15899;SDS011;8048;50.644;6.184;2022-11-28T07:28:14;5.30;;;4.80;;
15899;SDS011;8048;50.644;6.184;2022-11-28T07:30:40;4.97;;;4.57;;
15899;SDS011;8048;50.644;6.184;2022-11-28T07:33:05;5.93;;;4.77;;
15899;SDS011;8048;50.644;6.184;2022-11-28T07:35:33;5.00;;;4.50;;
15899;SDS011;8048;50.644;6.184;2022-11-28T07:37:59;4.47;;;4.17;;
15899;SDS011;8048;50.644;6.184;2022-11-28T07:40:25;4.80;;;4.43;;
15899;SDS011;8048;50.644;6.184;2022-11-28T07:42:50;3.70;;;3.40;;
15899;SDS011;8048;50.644;6.184;2022-11-28T07:45:16;4.17;;;3.77;;
15899;SDS011;8048;50.644;6.184;2022-11-28T07:47:41;5.17;;;4.67;;
15899;SDS011;8048;50.644;6.184;2022-11-28T07:50:07;4.03;;;3.73;;
15899;SDS011;8048;50.644;6.184;2022-11-28T07:52:33;3.70;;;3.40;;
15899;SDS011;8048;50.644;6.184;2022-11-28T07:54:58;5.00;;;3.43;;
15899;SDS011;8048;50.644;6.184;2022-11-28T07:57:24;3.60;;;3.30;;
15899;SDS011;8048;50.644;6.184;2022-11-28T07:59:49;3.00;;;2.80;;
15899;SDS011;8048;50.644;6.184;2022-11-28T08:02:15;5.10;;;4.30;;
15899;SDS011;8048;50.644;6.184;2022-11-28T08:04:40;2.73;;;2.63;;
15899;SDS011;8048;50.644;6.184;2022-11-28T08:07:06;2.70;;;2.60;;
15899;SDS011;8048;50.644;6.184;2022-11-28T08:09:31;5.40;;;4.90;;
15899;SDS011;8048;50.644;6.184;2022-11-28T08:11:57;3.17;;;2.87;;
15899;SDS011;8048;50.644;6.184;2022-11-28T08:14:23;2.57;;;2.47;;
15899;SDS011;8048;50.644;6.184;2022-11-28T08:16:49;3.60;;;3.40;;
15899;SDS011;8048;50.644;6.184;2022-11-28T08:19:15;3.60;;;3.30;;
15899;SDS011;8048;50.644;6.184;2022-11-28T08:21:40;3.97;;;3.50;;
15899;SDS011;8048;50.644;6.184;2022-11-28T08:24:06;3.23;;;3.03;;
15899;SDS011;8048;50.644;6.184;2022-11-28T08:26:32;2.43;;;2.33;;
15899;SDS011;8048;50.644;6.184;2022-11-28T08:28:59;2.80;;;2.60;;
15899;SDS011;8048;50.644;6.184;2022-11-28T08:31:30;3.10;;;2.90;;
15899;SDS011;8048;50.644;6.184;2022-11-28T08:34:02;3.63;;;3.03;;
15899;SDS011;8048;50.644;6.184;2022-11-28T08:36:29;2.47;;;2.37;;
15899;SDS011;8048;50.644;6.184;2022-11-28T08:38:55;3.50;;;2.80;;
15899;SDS011;8048;50.644;6.184;2022-11-28T08:41:22;3.00;;;2.80;;
15899;SDS011;8048;50.644;6.184;2022-11-28T08:43:48;2.57;;;2.47;;
15899;SDS011;8048;50.644;6.184;2022-11-28T08:46:16;3.57;;;3.37;;
15899;SDS011;8048;50.644;6.184;2022-11-28T08:48:44;3.30;;;2.97;;
15899;SDS011;8048;50.644;6.184;2022-11-28T08:51:11;2.53;;;2.40;;
15899;SDS011;8048;50.644;6.184;2022-11-28T08:53:38;2.23;;;2.13;;
15899;SDS011;8048;50.644;6.184;2022-11-28T08:56:04;3.00;;;2.80;;
15899;SDS011;8048;50.644;6.184;2022-11-28T08:58:30;3.03;;;2.83;;
15899;SDS011;8048;50.644;6.184;2022-11-28T09:00:55;2.47;;;2.37;;
15899;SDS011;8048;50.644;6.184;2022-11-28T09:03:21;3.27;;;3.07;;
15899;SDS011;8048;50.644;6.184;2022-11-28T09:05:46;2.67;;;2.47;;
15899;SDS011;8048;50.644;6.184;2022-11-28T09:08:12;2.87;;;2.70;;
15899;SDS011;8048;50.644;6.184;2022-11-28T09:10:40;2.90;;;2.70;;
15899;SDS011;8048;50.644;6.184;2022-11-28T09:13:08;2.00;;;1.90;;
15899;SDS011;8048;50.644;6.184;2022-11-28T09:15:34;1.93;;;1.83;;
15899;SDS011;8048;50.644;6.184;2022-11-28T09:18:03;1.73;;;1.67;;
15899;SDS011;8048;50.644;6.184;2022-11-28T09:20:28;1.80;;;1.70;;
15899;SDS011;8048;50.644;6.184;2022-11-28T09:22:54;4.23;;;2.30;;
15899;SDS011;8048;50.644;6.184;2022-11-28T09:25:19;2.43;;;2.33;;
15899;SDS011;8048;50.644;6.184;2022-11-28T09:27:45;2.07;;;1.97;;
15899;SDS011;8048;50.644;6.184;2022-11-28T09:30:10;2.00;;;1.90;;
15899;SDS011;8048;50.644;6.184;2022-11-28T09:32:36;1.70;;;1.60;;
15899;SDS011;8048;50.644;6.184;2022-11-28T09:35:02;2.23;;;2.13;;
15899;SDS011;8048;50.644;6.184;2022-11-28T09:37:28;2.20;;;2.10;;
15899;SDS011;8048;50.644;6.184;2022-11-28T09:39:53;1.60;;;1.50;;
15899;SDS011;8048;50.644;6.184;2022-11-28T09:44:56;1.43;;;1.43;;
15899;SDS011;8048;50.644;6.184;2022-11-28T09:47:27;1.43;;;1.43;;
15899;SDS011;8048;50.644;6.184;2022-11-28T09:49:57;1.50;;;1.50;;
15899;SDS011;8048;50.644;6.184;2022-11-28T09:52:31;1.20;;;1.20;;
15899;SDS011;8048;50.644;6.184;2022-11-28T09:55:18;1.67;;;1.67;;
15899;SDS011;8048;50.644;6.184;2022-11-28T09:57:52;1.67;;;1.57;;
15899;SDS011;8048;50.644;6.184;2022-11-28T10:00:31;2.07;;;1.97;;
15899;SDS011;8048;50.644;6.184;2022-11-28T10:03:24;1.30;;;1.30;;
15899;SDS011;8048;50.644;6.184;2022-11-28T10:06:25;2.20;;;2.10;;
15899;SDS011;8048;50.644;6.184;2022-11-28T10:09:07;1.80;;;1.70;;
15899;SDS011;8048;50.644;6.184;2022-11-28T10:20:10;1.47;;;1.47;;
15899;SDS011;8048;50.644;6.184;2022-11-28T10:22:44;1.50;;;1.40;;
15899;SDS011;8048;50.644;6.184;2022-11-28T10:25:28;1.50;;;1.50;;
15899;SDS011;8048;50.644;6.184;2022-11-28T10:27:57;1.50;;;1.50;;
15899;SDS011;8048;50.644;6.184;2022-11-28T10:30:28;1.43;;;1.43;;
15899;SDS011;8048;50.644;6.184;2022-11-28T10:33:00;8.03;;;1.50;;
15899;SDS011;8048;50.644;6.184;2022-11-28T10:35:58;1.37;;;1.37;;
15899;SDS011;8048;50.644;6.184;2022-11-28T10:38:25;1.50;;;1.50;;
15899;SDS011;8048;50.644;6.184;2022-11-28T10:40:55;1.60;;;1.60;;
15899;SDS011;8048;50.644;6.184;2022-11-28T10:43:33;1.67;;;1.67;;
15899;SDS011;8048;50.644;6.184;2022-11-28T10:49:00;1.50;;;1.50;;
15899;SDS011;8048;50.644;6.184;2022-11-28T10:51:52;1.33;;;1.30;;
15899;SDS011;8048;50.644;6.184;2022-11-28T10:57:26;1.70;;;1.70;;
15899;SDS011;8048;50.644;6.184;2022-11-28T11:00:04;1.50;;;1.40;;
15899;SDS011;8048;50.644;6.184;2022-11-28T11:02:52;1.73;;;1.67;;
15899;SDS011;8048;50.644;6.184;2022-11-28T11:07:53;1.50;;;1.50;;
15899;SDS011;8048;50.644;6.184;2022-11-28T11:10:24;1.40;;;1.40;;
15899;SDS011;8048;50.644;6.184;2022-11-28T11:12:54;1.77;;;1.67;;
15899;SDS011;8048;50.644;6.184;2022-11-28T11:17:53;1.90;;;1.80;;
15899;SDS011;8048;50.644;6.184;2022-11-28T11:22:55;1.80;;;1.70;;
15899;SDS011;8048;50.644;6.184;2022-11-28T11:25:22;1.47;;;1.47;;
15899;SDS011;8048;50.644;6.184;2022-11-28T11:27:50;1.57;;;1.57;;
15899;SDS011;8048;50.644;6.184;2022-11-28T11:30:28;1.30;;;1.30;;
15899;SDS011;8048;50.644;6.184;2022-11-28T11:32:57;1.40;;;1.40;;
15899;SDS011;8048;50.644;6.184;2022-11-28T11:35:33;1.70;;;1.70;;
15899;SDS011;8048;50.644;6.184;2022-11-28T11:40:44;1.63;;;1.63;;
15899;SDS011;8048;50.644;6.184;2022-11-28T11:43:30;1.67;;;1.67;;
15899;SDS011;8048;50.644;6.184;2022-11-28T11:48:39;1.50;;;1.50;;
15899;SDS011;8048;50.644;6.184;2022-11-28T11:53:46;2.00;;;1.90;;
15899;SDS011;8048;50.644;6.184;2022-11-28T11:56:12;1.50;;;1.50;;
15899;SDS011;8048;50.644;6.184;2022-11-28T11:58:45;2.10;;;2.00;;
15899;SDS011;8048;50.644;6.184;2022-11-28T12:01:15;1.87;;;1.87;;
15899;SDS011;8048;50.644;6.184;2022-11-28T12:03:48;1.90;;;1.90;;
15899;SDS011;8048;50.644;6.184;2022-11-28T12:06:27;1.53;;;1.53;;
15899;SDS011;8048;50.644;6.184;2022-11-28T12:11:40;2.00;;;2.00;;
15899;SDS011;8048;50.644;6.184;2022-11-28T12:19:57;1.90;;;1.90;;
15899;SDS011;8048;50.644;6.184;2022-11-28T12:25:07;1.80;;;1.80;;
15899;SDS011;8048;50.644;6.184;2022-11-28T12:31:05;1.80;;;1.80;;
15899;SDS011;8048;50.644;6.184;2022-11-28T12:33:37;1.97;;;1.87;;
15899;SDS011;8048;50.644;6.184;2022-11-28T12:38:54;1.90;;;1.80;;
15899;SDS011;8048;50.644;6.184;2022-11-28T12:44:16;1.70;;;1.70;;
15899;SDS011;8048;50.644;6.184;2022-11-28T12:47:14;1.60;;;1.50;;
15899;SDS011;8048;50.644;6.184;2022-11-28T12:50:20;1.60;;;1.57;;
15899;SDS011;8048;50.644;6.184;2022-11-28T12:55:30;1.63;;;1.63;;
15899;SDS011;8048;50.644;6.184;2022-11-28T13:00:49;1.70;;;1.70;;
15899;SDS011;8048;50.644;6.184;2022-11-28T13:06:22;1.83;;;1.80;;
15899;SDS011;8048;50.644;6.184;2022-11-28T13:09:09;4.10;;;2.23;;
15899;SDS011;8048;50.644;6.184;2022-11-28T13:11:50;2.20;;;2.10;;
15899;SDS011;8048;50.644;6.184;2022-11-28T13:14:23;1.70;;;1.70;;
15899;SDS011;8048;50.644;6.184;2022-11-28T13:17:02;1.70;;;1.70;;
15899;SDS011;8048;50.644;6.184;2022-11-28T13:25:21;1.90;;;1.80;;
15899;SDS011;8048;50.644;6.184;2022-11-28T13:28:21;2.07;;;2.07;;
15899;SDS011;8048;50.644;6.184;2022-11-28T13:33:52;1.80;;;1.80;;
15899;SDS011;8048;50.644;6.184;2022-11-28T13:36:20;1.90;;;1.90;;
15899;SDS011;8048;50.644;6.184;2022-11-28T13:41:47;2.17;;;2.07;;
15899;SDS011;8048;50.644;6.184;2022-11-28T13:44:32;2.40;;;2.17;;
15899;SDS011;8048;50.644;6.184;2022-11-28T13:47:12;2.10;;;2.00;;
15899;SDS011;8048;50.644;6.184;2022-11-28T13:49:51;2.23;;;2.13;;
15899;SDS011;8048;50.644;6.184;2022-11-28T13:52:46;2.67;;;2.57;;
15899;SDS011;8048;50.644;6.184;2022-11-28T13:55:38;2.63;;;2.40;;
15899;SDS011;8048;50.644;6.184;2022-11-28T13:58:22;2.63;;;2.43;;
15899;SDS011;8048;50.644;6.184;2022-11-28T14:03:27;3.63;;;3.33;;
15899;SDS011;8048;50.644;6.184;2022-11-28T14:05:56;3.17;;;2.90;;
15899;SDS011;8048;50.644;6.184;2022-11-28T14:08:31;2.60;;;2.47;;
15899;SDS011;8048;50.644;6.184;2022-11-28T14:11:09;3.10;;;2.90;;
15899;SDS011;8048;50.644;6.184;2022-11-28T14:16:43;2.80;;;2.70;;
15899;SDS011;8048;50.644;6.184;2022-11-28T14:21:46;2.80;;;2.70;;
15899;SDS011;8048;50.644;6.184;2022-11-28T14:24:22;3.33;;;3.17;;
15899;SDS011;8048;50.644;6.184;2022-11-28T14:27:00;3.80;;;3.20;;
15899;SDS011;8048;50.644;6.184;2022-11-28T14:29:37;5.37;;;3.63;;
15899;SDS011;8048;50.644;6.184;2022-11-28T14:32:05;3.20;;;3.00;;
15899;SDS011;8048;50.644;6.184;2022-11-28T14:34:44;3.00;;;2.80;;
15899;SDS011;8048;50.644;6.184;2022-11-28T14:39:44;4.70;;;3.97;;
15899;SDS011;8048;50.644;6.184;2022-11-28T14:44:41;3.37;;;3.17;;
15899;SDS011;8048;50.644;6.184;2022-11-28T14:47:12;3.70;;;3.40;;
15899;SDS011;8048;50.644;6.184;2022-11-28T14:49:44;4.37;;;3.97;;
15899;SDS011;8048;50.644;6.184;2022-11-28T14:52:21;3.17;;;2.83;;
15899;SDS011;8048;50.644;6.184;2022-11-28T14:54:48;3.27;;;3.17;;
15899;SDS011;8048;50.644;6.184;2022-11-28T14:57:16;4.00;;;3.17;;
15899;SDS011;8048;50.644;6.184;2022-11-28T14:59:46;3.73;;;3.40;;
15899;SDS011;8048;50.644;6.184;2022-11-28T15:05:00;4.40;;;3.40;;
15899;SDS011;8048;50.644;6.184;2022-11-28T15:10:07;3.93;;;3.53;;
15899;SDS011;8048;50.644;6.184;2022-11-28T15:12:53;4.17;;;3.77;;
15899;SDS011;8048;50.644;6.184;2022-11-28T15:15:47;3.50;;;3.13;;
15899;SDS011;8048;50.644;6.184;2022-11-28T15:18:13;3.33;;;3.13;;
15899;SDS011;8048;50.644;6.184;2022-11-28T15:20:46;6.23;;;3.20;;
15899;SDS011;8048;50.644;6.184;2022-11-28T15:23:25;8.00;;;3.20;;
15899;SDS011;8048;50.644;6.184;2022-11-28T15:25:55;3.10;;;2.90;;
15899;SDS011;8048;50.644;6.184;2022-11-28T15:28:22;3.40;;;3.10;;
15899;SDS011;8048;50.644;6.184;2022-11-28T15:30:52;3.90;;;2.60;;
15899;SDS011;8048;50.644;6.184;2022-11-28T15:33:18;3.83;;;3.00;;
15899;SDS011;8048;50.644;6.184;2022-11-28T15:35:55;3.70;;;2.73;;
15899;SDS011;8048;50.644;6.184;2022-11-28T15:38:24;4.17;;;3.27;;
15899;SDS011;8048;50.644;6.184;2022-11-28T15:40:51;2.83;;;2.63;;
15899;SDS011;8048;50.644;6.184;2022-11-28T15:43:18;3.17;;;2.90;;
15899;SDS011;8048;50.644;6.184;2022-11-28T15:45:48;2.97;;;2.77;;
15899;SDS011;8048;50.644;6.184;2022-11-28T15:48:27;2.67;;;2.10;;
15899;SDS011;8048;50.644;6.184;2022-11-28T15:50:59;5.20;;;2.73;;
15899;SDS011;8048;50.644;6.184;2022-11-28T15:53:25;4.07;;;2.73;;
15899;SDS011;8048;50.644;6.184;2022-11-28T15:56:09;3.80;;;2.30;;
15899;SDS011;8048;50.644;6.184;2022-11-28T15:58:35;2.77;;;2.57;;
15899;SDS011;8048;50.644;6.184;2022-11-28T16:03:31;3.20;;;2.43;;
15899;SDS011;8048;50.644;6.184;2022-11-28T16:05:59;2.60;;;2.40;;
15899;SDS011;8048;50.644;6.184;2022-11-28T16:08:35;2.53;;;2.37;;
15899;SDS011;8048;50.644;6.184;2022-11-28T16:11:13;2.50;;;2.30;;
15899;SDS011;8048;50.644;6.184;2022-11-28T16:13:41;1.93;;;1.83;;
15899;SDS011;8048;50.644;6.184;2022-11-28T16:16:11;2.83;;;2.63;;
15899;SDS011;8048;50.644;6.184;2022-11-28T16:18:47;1.80;;;1.70;;
15899;SDS011;8048;50.644;6.184;2022-11-28T16:21:34;2.30;;;2.20;;
15899;SDS011;8048;50.644;6.184;2022-11-28T16:24:13;1.73;;;1.63;;
15899;SDS011;8048;50.644;6.184;2022-11-28T16:26:52;2.00;;;1.90;;
15899;SDS011;8048;50.644;6.184;2022-11-28T16:29:24;1.67;;;1.57;;
15899;SDS011;8048;50.644;6.184;2022-11-28T16:32:06;2.60;;;2.40;;
15899;SDS011;8048;50.644;6.184;2022-11-28T16:34:42;2.00;;;1.90;;
15899;SDS011;8048;50.644;6.184;2022-11-28T16:37:09;2.27;;;1.97;;
15899;SDS011;8048;50.644;6.184;2022-11-28T16:39:36;1.73;;;1.63;;
15899;SDS011;8048;50.644;6.184;2022-11-28T16:42:05;2.20;;;2.10;;
15899;SDS011;8048;50.644;6.184;2022-11-28T16:44:41;1.90;;;1.80;;
15899;SDS011;8048;50.644;6.184;2022-11-28T16:47:21;1.70;;;1.60;;
15899;SDS011;8048;50.644;6.184;2022-11-28T16:55:35;1.57;;;1.43;;
15899;SDS011;8048;50.644;6.184;2022-11-28T17:00:42;2.30;;;2.20;;
15899;SDS011;8048;50.644;6.184;2022-11-28T17:06:14;1.60;;;1.60;;
15899;SDS011;8048;50.644;6.184;2022-11-28T17:08:42;1.50;;;1.50;;
15899;SDS011;8048;50.644;6.184;2022-11-28T17:11:07;2.03;;;1.93;;
15899;SDS011;8048;50.644;6.184;2022-11-28T17:13:33;2.70;;;2.50;;
15899;SDS011;8048;50.644;6.184;2022-11-28T17:15:59;3.67;;;2.07;;
15899;SDS011;8048;50.644;6.184;2022-11-28T17:18:24;2.60;;;2.40;;
15899;SDS011;8048;50.644;6.184;2022-11-28T17:20:50;2.27;;;2.07;;
15899;SDS011;8048;50.644;6.184;2022-11-28T17:23:16;2.57;;;2.37;;
15899;SDS011;8048;50.644;6.184;2022-11-28T17:25:50;2.80;;;2.60;;
15899;SDS011;8048;50.644;6.184;2022-11-28T17:28:16;3.70;;;2.73;;
15899;SDS011;8048;50.644;6.184;2022-11-28T17:30:41;2.63;;;2.43;;
15899;SDS011;8048;50.644;6.184;2022-11-28T17:33:09;2.57;;;2.47;;
15899;SDS011;8048;50.644;6.184;2022-11-28T17:35:40;3.97;;;2.50;;
15899;SDS011;8048;50.644;6.184;2022-11-28T17:38:09;5.07;;;3.00;;
15899;SDS011;8048;50.644;6.184;2022-11-28T17:40:35;2.90;;;2.70;;
15899;SDS011;8048;50.644;6.184;2022-11-28T17:43:02;4.97;;;2.90;;
15899;SDS011;8048;50.644;6.184;2022-11-28T17:45:29;3.00;;;2.70;;
15899;SDS011;8048;50.644;6.184;2022-11-28T17:47:57;2.63;;;2.53;;
15899;SDS011;8048;50.644;6.184;2022-11-28T17:50:23;3.63;;;2.73;;
15899;SDS011;8048;50.644;6.184;2022-11-28T17:52:48;3.27;;;2.97;;
15899;SDS011;8048;50.644;6.184;2022-11-28T17:55:14;3.80;;;3.60;;